createdAt,value
2024-02-21T00:00:34.625Z,8.57
2024-02-21T00:03:03.217Z,8.58
2024-02-21T00:05:29.847Z,8.56
2024-02-21T00:07:56.502Z,8.55
2024-02-21T00:10:23.086Z,8.54
2024-02-21T00:12:49.623Z,8.51
2024-02-21T00:15:16.233Z,8.50
2024-02-21T00:17:43.499Z,8.50
2024-02-21T00:20:10.804Z,8.47
2024-02-21T00:22:37.782Z,8.46
2024-02-21T00:25:04.666Z,8.46
2024-02-21T00:27:31.359Z,8.48
2024-02-21T00:29:57.869Z,8.46
2024-02-21T00:32:24.376Z,8.47
2024-02-21T00:34:50.867Z,8.46
2024-02-21T00:37:17.447Z,8.44
2024-02-21T00:39:44.080Z,8.46
2024-02-21T00:42:10.558Z,8.47
2024-02-21T00:44:37.248Z,8.46
2024-02-21T00:47:04.016Z,8.48
2024-02-21T00:49:30.598Z,8.48
2024-02-21T00:51:57.151Z,8.48
2024-02-21T00:54:24.173Z,8.47
2024-02-21T00:56:50.866Z,8.47
2024-02-21T00:59:17.888Z,8.46
2024-02-21T01:01:44.635Z,8.46
2024-02-21T01:04:11.548Z,8.46
2024-02-21T01:06:38.161Z,8.47
2024-02-21T01:09:05.077Z,8.47
2024-02-21T01:11:31.761Z,8.46
2024-02-21T01:13:58.862Z,8.48
2024-02-21T01:16:25.652Z,8.49
2024-02-21T01:18:52.226Z,8.51
2024-02-21T01:21:18.844Z,8.49
2024-02-21T01:23:45.381Z,8.50
2024-02-21T01:26:14.286Z,8.49
2024-02-21T01:28:41.552Z,8.50
2024-02-21T01:31:08.458Z,8.50
2024-02-21T01:33:40.112Z,8.49
2024-02-21T01:36:10.002Z,8.48
2024-02-21T01:38:36.779Z,8.48
2024-02-21T01:41:03.625Z,8.47
2024-02-21T01:43:30.155Z,8.47
2024-02-21T01:45:58.256Z,8.48
2024-02-21T01:48:26.171Z,8.48
2024-02-21T01:50:54.927Z,8.47
2024-02-21T01:53:24.188Z,8.47
2024-02-21T01:55:50.788Z,8.46
2024-02-21T01:58:18.305Z,8.46
2024-02-21T02:00:46.698Z,8.46
2024-02-21T02:03:17.973Z,8.46
2024-02-21T02:05:48.655Z,8.45
2024-02-21T02:08:16.413Z,8.46
2024-02-21T02:10:43.824Z,8.47
2024-02-21T02:13:11.228Z,8.47
2024-02-21T02:15:41.385Z,8.45
2024-02-21T02:18:08.026Z,8.44
2024-02-21T02:20:34.813Z,8.46
2024-02-21T02:23:10.918Z,8.46
2024-02-21T02:25:38.319Z,8.44
2024-02-21T02:28:06.379Z,8.43
2024-02-21T02:30:39.127Z,8.46
2024-02-21T02:33:06.264Z,8.47
2024-02-21T02:35:33.622Z,8.45
2024-02-21T02:38:00.252Z,8.46
2024-02-21T02:40:26.894Z,8.44
2024-02-21T02:42:56.368Z,8.44
2024-02-21T02:45:24.893Z,8.43
2024-02-21T02:47:51.469Z,8.43
2024-02-21T02:50:18.220Z,8.43
2024-02-21T02:52:44.873Z,8.43
2024-02-21T02:55:11.328Z,8.41
2024-02-21T02:57:38.033Z,8.42
2024-02-21T03:00:05.702Z,8.41
2024-02-21T03:02:32.831Z,8.41
2024-02-21T03:04:59.729Z,8.42
2024-02-21T03:07:26.997Z,8.40
2024-02-21T03:09:54.466Z,8.42
2024-02-21T03:12:25.649Z,8.39
2024-02-21T03:14:52.253Z,8.39
2024-02-21T03:17:18.668Z,8.38
2024-02-21T03:19:45.149Z,8.38
2024-02-21T03:22:11.663Z,8.38
2024-02-21T03:24:38.286Z,8.37
2024-02-21T03:27:05.087Z,8.36
2024-02-21T03:29:31.467Z,8.37
2024-02-21T03:31:57.990Z,8.34
2024-02-21T03:34:24.509Z,8.35
2024-02-21T03:36:51.078Z,8.34
2024-02-21T03:39:17.572Z,8.34
2024-02-21T03:41:44.735Z,8.32
2024-02-21T03:44:11.375Z,8.31
2024-02-21T03:46:37.908Z,8.34
2024-02-21T03:49:04.440Z,8.32
2024-02-21T03:51:31.131Z,8.31
2024-02-21T03:53:57.744Z,8.30
2024-02-21T03:56:24.403Z,8.29
2024-02-21T03:58:51.656Z,8.28
2024-02-21T04:01:18.543Z,8.28
2024-02-21T04:03:45.897Z,8.27
2024-02-21T04:06:12.465Z,8.27
2024-02-21T04:08:40.520Z,8.26
2024-02-21T04:11:07.013Z,8.25
2024-02-21T04:13:33.524Z,8.26
2024-02-21T04:16:00.030Z,8.27
2024-02-21T04:18:29.248Z,8.25
2024-02-21T04:20:55.791Z,8.25
2024-02-21T04:23:22.213Z,8.24
2024-02-21T04:25:48.821Z,8.23
2024-02-21T04:28:15.442Z,8.23
2024-02-21T04:30:41.896Z,8.22
2024-02-21T04:33:08.485Z,8.21
2024-02-21T04:35:37.486Z,8.21
2024-02-21T04:38:05.224Z,8.22
2024-02-21T04:40:31.924Z,8.20
2024-02-21T04:42:58.815Z,8.21
2024-02-21T04:45:25.448Z,8.20
2024-02-21T04:47:51.867Z,8.19
2024-02-21T04:50:18.499Z,8.20
2024-02-21T04:52:45.138Z,8.18
2024-02-21T04:55:11.735Z,8.18
2024-02-21T04:57:38.286Z,8.19
2024-02-21T05:00:05.339Z,8.19
2024-02-21T05:02:31.902Z,8.20
2024-02-21T05:04:58.525Z,8.17
2024-02-21T05:07:25.080Z,8.19
2024-02-21T05:09:51.681Z,8.19
2024-02-21T05:12:18.221Z,8.19
2024-02-21T05:14:44.770Z,8.20
2024-02-21T05:17:11.311Z,8.19
2024-02-21T05:19:37.992Z,8.19
2024-02-21T05:22:04.852Z,8.18
2024-02-21T05:24:31.389Z,8.19
2024-02-21T05:26:57.905Z,8.18
2024-02-21T05:29:24.348Z,8.19
2024-02-21T05:31:54.001Z,8.17
2024-02-21T05:34:22.015Z,8.16
2024-02-21T05:36:50.913Z,8.15
2024-02-21T05:39:18.578Z,8.16
2024-02-21T05:41:45.484Z,8.15
2024-02-21T05:44:12.444Z,8.15
2024-02-21T05:46:38.910Z,8.14
2024-02-21T05:49:05.485Z,8.13
2024-02-21T05:51:35.968Z,8.12
2024-02-21T05:54:02.784Z,8.11
2024-02-21T05:56:29.611Z,8.11
2024-02-21T05:58:56.154Z,8.11
2024-02-21T06:01:23.071Z,8.10
2024-02-21T06:03:49.652Z,8.10
2024-02-21T06:06:16.248Z,8.09
2024-02-21T06:08:42.830Z,8.11
2024-02-21T06:11:09.495Z,8.10
2024-02-21T06:13:40.415Z,8.11
2024-02-21T06:16:08.030Z,8.10
2024-02-21T06:18:37.104Z,8.09
2024-02-21T06:21:03.715Z,8.10
2024-02-21T06:23:30.185Z,8.10
2024-02-21T06:25:56.777Z,8.09
2024-02-21T06:28:23.345Z,8.10
2024-02-21T06:30:49.915Z,8.09
2024-02-21T06:33:16.549Z,8.08
2024-02-21T06:35:44.028Z,8.08
2024-02-21T06:38:10.761Z,8.05
2024-02-21T06:40:40.877Z,8.03
2024-02-21T06:43:07.472Z,8.01
2024-02-21T06:45:33.927Z,7.99
2024-02-21T06:48:00.636Z,7.98
2024-02-21T06:50:27.283Z,7.94
2024-02-21T06:52:53.831Z,7.94
2024-02-21T06:55:20.437Z,7.93
2024-02-21T06:57:46.985Z,7.93
2024-02-21T07:00:14.318Z,7.93
2024-02-21T07:02:40.742Z,7.94
2024-02-21T07:05:07.723Z,7.92
2024-02-21T07:07:36.318Z,7.93
2024-02-21T07:10:02.953Z,7.92
2024-02-21T07:12:29.360Z,7.91
2024-02-21T07:14:55.802Z,7.90
2024-02-21T07:17:22.391Z,7.89
2024-02-21T07:19:48.977Z,7.89
2024-02-21T07:22:15.524Z,7.90
2024-02-21T07:24:42.085Z,7.90
2024-02-21T07:27:08.568Z,7.90
2024-02-21T07:29:34.999Z,7.88
2024-02-21T07:32:02.611Z,7.90
2024-02-21T07:34:29.343Z,7.90
2024-02-21T07:36:56.952Z,7.89
2024-02-21T07:39:23.480Z,7.91
2024-02-21T07:41:50.460Z,7.92
2024-02-21T07:44:17.299Z,7.93
2024-02-21T07:46:43.781Z,7.96
2024-02-21T07:49:10.391Z,7.95
2024-02-21T07:51:37.532Z,7.93
2024-02-21T07:54:05.389Z,7.95
2024-02-21T07:56:32.272Z,7.96
2024-02-21T07:58:59.130Z,8.02
2024-02-21T08:01:26.040Z,8.02
2024-02-21T08:03:52.950Z,8.02
2024-02-21T08:06:19.705Z,8.03
2024-02-21T08:08:46.232Z,8.04
2024-02-21T08:11:12.861Z,8.05
2024-02-21T08:13:39.469Z,8.07
2024-02-21T08:16:06.187Z,8.08
2024-02-21T08:18:32.909Z,8.10
2024-02-21T08:20:59.530Z,8.12
2024-02-21T08:23:26.199Z,8.16
2024-02-21T08:25:52.983Z,8.16
2024-02-21T08:28:19.550Z,8.19
2024-02-21T08:30:49.011Z,8.21
2024-02-21T08:33:17.812Z,8.24
2024-02-21T08:35:44.459Z,8.26
2024-02-21T08:38:11.128Z,8.28
2024-02-21T08:40:38.088Z,8.28
2024-02-21T08:43:04.867Z,8.34
2024-02-21T08:45:31.524Z,8.36
2024-02-21T08:47:58.400Z,8.38
2024-02-21T08:50:28.669Z,8.39
2024-02-21T08:52:56.528Z,8.38
2024-02-21T08:55:23.461Z,8.40
2024-02-21T08:57:50.148Z,8.43
2024-02-21T09:00:17.473Z,8.45
2024-02-21T09:02:44.576Z,8.46
2024-02-21T09:05:12.014Z,8.44
2024-02-21T09:07:38.698Z,8.47
2024-02-21T09:10:05.542Z,8.48
2024-02-21T09:12:32.003Z,8.56
2024-02-21T09:14:58.542Z,8.58
2024-02-21T09:17:26.386Z,8.57
2024-02-21T09:19:53.695Z,8.63
2024-02-21T09:22:20.348Z,8.64
2024-02-21T09:24:46.811Z,8.64
2024-02-21T09:27:13.363Z,8.65
2024-02-21T09:29:40.681Z,8.62
2024-02-21T09:32:07.666Z,8.62
2024-02-21T09:34:34.547Z,8.64
2024-02-21T09:37:01.121Z,8.65
2024-02-21T09:39:27.681Z,8.68
2024-02-21T09:42:00.496Z,8.72
2024-02-21T09:44:33.937Z,8.73
2024-02-21T09:47:07.379Z,8.73
2024-02-21T09:49:36.246Z,8.71
2024-02-21T09:52:04.190Z,8.71
2024-02-21T09:54:34.111Z,8.74
2024-02-21T09:57:04.702Z,8.77
2024-02-21T09:59:32.854Z,8.78
2024-02-21T10:02:01.834Z,8.77
2024-02-21T10:04:29.050Z,8.78
2024-02-21T10:06:56.202Z,8.83
2024-02-21T10:09:30.535Z,8.91
2024-02-21T10:12:08.565Z,8.93
2024-02-21T10:14:35.248Z,8.93
2024-02-21T10:17:02.287Z,8.97
2024-02-21T10:19:29.022Z,9.07
2024-02-21T10:22:11.523Z,9.09
2024-02-21T10:24:44.790Z,9.07
2024-02-21T10:27:14.329Z,9.11
2024-02-21T10:29:42.812Z,9.13
2024-02-21T10:32:13.779Z,9.20
2024-02-21T10:34:42.655Z,9.29
2024-02-21T10:37:10.695Z,9.34
2024-02-21T10:39:42.329Z,9.35
2024-02-21T10:42:12.977Z,9.38
2024-02-21T10:44:41.362Z,9.33
2024-02-21T10:47:14.458Z,9.35
2024-02-21T10:49:46.044Z,9.38
2024-02-21T10:52:26.561Z,9.38
2024-02-21T10:55:17.580Z,9.36
2024-02-21T10:57:45.053Z,9.38
2024-02-21T11:00:13.720Z,9.37
2024-02-21T11:02:41.679Z,9.44
2024-02-21T11:05:09.151Z,9.47
2024-02-21T11:07:38.413Z,9.48
2024-02-21T11:10:06.200Z,9.43
2024-02-21T11:12:34.715Z,9.38
2024-02-21T11:15:08.298Z,9.42
2024-02-21T11:17:37.490Z,9.32
2024-02-21T11:20:15.356Z,9.23
2024-02-21T11:22:44.971Z,9.15
2024-02-21T11:25:14.665Z,9.18
2024-02-21T11:27:47.436Z,9.17
2024-02-21T11:30:15.505Z,9.15
2024-02-21T11:32:42.198Z,9.07
2024-02-21T11:35:09.908Z,9.02
2024-02-21T11:37:41.369Z,8.99
2024-02-21T11:40:11.460Z,8.99
2024-02-21T11:42:38.790Z,8.97
2024-02-21T11:45:05.818Z,8.96
2024-02-21T11:47:32.586Z,8.93
2024-02-21T11:49:59.287Z,8.89
2024-02-21T11:52:27.744Z,8.89
2024-02-21T11:54:55.937Z,8.93
2024-02-21T11:57:22.637Z,8.92
2024-02-21T11:59:50.387Z,8.94
2024-02-21T12:02:18.373Z,9.05
2024-02-21T12:04:45.880Z,9.21
2024-02-21T12:07:12.772Z,9.31
2024-02-21T12:09:39.353Z,9.40
2024-02-21T12:12:07.208Z,9.43
2024-02-21T12:14:35.763Z,9.49
2024-02-21T12:17:05.375Z,9.58
2024-02-21T12:19:33.448Z,9.70
2024-02-21T12:22:01.036Z,9.78
2024-02-21T12:24:28.799Z,9.82
2024-02-21T12:26:57.833Z,9.92
2024-02-21T12:29:25.923Z,10.00
2024-02-21T12:31:53.244Z,10.03
2024-02-21T12:34:27.675Z,10.04
2024-02-21T12:37:02.497Z,9.95
2024-02-21T12:39:29.889Z,9.82
2024-02-21T12:41:57.856Z,9.80
2024-02-21T12:44:25.272Z,9.82
2024-02-21T12:46:55.433Z,9.81
2024-02-21T12:49:22.691Z,9.88
2024-02-21T12:51:49.650Z,9.92
2024-02-21T12:54:16.091Z,9.91
2024-02-21T12:56:42.565Z,9.89
2024-02-21T12:59:12.239Z,9.97
2024-02-21T13:01:39.473Z,9.99
2024-02-21T13:04:06.285Z,9.95
2024-02-21T13:06:32.803Z,9.93
2024-02-21T13:09:00.564Z,9.92
2024-02-21T13:11:29.778Z,9.97
2024-02-21T13:13:56.284Z,9.97
2024-02-21T13:16:23.804Z,10.01
2024-02-21T13:18:50.651Z,9.99
2024-02-21T13:21:17.756Z,9.93
2024-02-21T13:23:45.520Z,9.97
2024-02-21T13:26:12.393Z,9.98
2024-02-21T13:28:39.211Z,10.03
2024-02-21T13:31:05.631Z,10.06
2024-02-21T13:33:32.219Z,10.02
2024-02-21T13:35:59.551Z,9.96
2024-02-21T13:38:25.938Z,9.94
2024-02-21T13:40:52.390Z,9.91
2024-02-21T13:43:18.907Z,9.92
2024-02-21T13:45:57.579Z,9.93
2024-02-21T13:48:24.219Z,9.89
2024-02-21T13:50:50.721Z,9.89
2024-02-21T13:53:19.541Z,9.92
2024-02-21T13:55:46.479Z,9.92
2024-02-21T13:58:13.129Z,9.92
2024-02-21T14:00:39.742Z,9.92
2024-02-21T14:03:06.317Z,9.91
2024-02-21T14:05:32.884Z,9.91
2024-02-21T14:07:59.297Z,9.90
2024-02-21T14:10:25.917Z,9.92
2024-02-21T14:12:52.484Z,9.92
2024-02-21T14:15:18.966Z,9.88
2024-02-21T14:17:45.667Z,9.86
2024-02-21T14:20:17.526Z,9.86
2024-02-21T14:22:45.605Z,9.86
2024-02-21T14:25:12.016Z,9.88
2024-02-21T14:27:38.461Z,9.90
2024-02-21T14:30:05.975Z,9.92
2024-02-21T14:32:33.425Z,9.92
2024-02-21T14:35:02.568Z,9.92
2024-02-21T14:37:31.619Z,9.88
2024-02-21T14:39:58.135Z,9.86
2024-02-21T14:42:24.575Z,9.87
2024-02-21T14:44:51.055Z,9.85
2024-02-21T14:47:17.538Z,9.81
2024-02-21T14:49:44.714Z,9.80
2024-02-21T14:52:11.954Z,9.79
2024-02-21T14:54:39.184Z,9.78
2024-02-21T14:57:05.913Z,9.75
2024-02-21T14:59:34.675Z,9.68
2024-02-21T15:02:02.093Z,9.62
2024-02-21T15:04:29.042Z,9.58
2024-02-21T15:06:55.757Z,9.50
2024-02-21T15:09:22.148Z,9.43
2024-02-21T15:11:48.844Z,9.39
2024-02-21T15:14:15.414Z,9.33
2024-02-21T15:16:41.977Z,9.29
2024-02-21T15:19:08.406Z,9.22
2024-02-21T15:21:34.936Z,9.13
2024-02-21T15:24:03.166Z,9.07
2024-02-21T15:26:30.941Z,8.98
2024-02-21T15:28:57.597Z,8.90
2024-02-21T15:31:24.418Z,8.84
2024-02-21T15:33:53.400Z,8.79
2024-02-21T15:36:20.487Z,8.71
2024-02-21T15:38:47.469Z,8.69
2024-02-21T15:41:16.741Z,8.65
2024-02-21T15:43:46.381Z,8.60
2024-02-21T15:46:13.914Z,8.58
2024-02-21T15:48:40.744Z,8.56
2024-02-21T15:51:08.045Z,8.52
2024-02-21T15:53:34.542Z,8.47
2024-02-21T15:56:01.190Z,8.44
2024-02-21T15:58:28.867Z,8.41
2024-02-21T16:00:55.598Z,8.38
2024-02-21T16:03:23.041Z,8.37
2024-02-21T16:05:50.204Z,8.37
2024-02-21T16:08:20.008Z,8.35
2024-02-21T16:10:46.782Z,8.33
2024-02-21T16:13:13.544Z,8.28
2024-02-21T16:15:41.167Z,8.25
2024-02-21T16:18:07.900Z,8.21
2024-02-21T16:20:34.494Z,8.19
2024-02-21T16:23:04.617Z,8.15
2024-02-21T16:25:31.545Z,8.15
2024-02-21T16:27:58.889Z,8.11
2024-02-21T16:30:25.530Z,8.09
2024-02-21T16:32:53.544Z,8.05
2024-02-21T16:35:20.521Z,8.03
2024-02-21T16:37:48.756Z,8.02
2024-02-21T16:40:15.378Z,8.00
2024-02-21T16:42:42.024Z,7.98
2024-02-21T16:45:09.790Z,7.96
2024-02-21T16:47:37.553Z,7.95
2024-02-21T16:50:06.434Z,7.94
2024-02-21T16:52:33.264Z,7.94
2024-02-21T16:54:59.853Z,7.92
2024-02-21T16:57:26.387Z,7.92
2024-02-21T16:59:54.006Z,7.91
2024-02-21T17:02:20.879Z,7.91
2024-02-21T17:04:48.731Z,7.90
2024-02-21T17:07:15.279Z,7.90
2024-02-21T17:09:41.755Z,7.88
2024-02-21T17:12:08.532Z,7.85
2024-02-21T17:14:36.202Z,7.83
2024-02-21T17:17:02.913Z,7.83
2024-02-21T17:19:29.865Z,7.83
2024-02-21T17:21:56.691Z,7.81
2024-02-21T17:24:24.124Z,7.80
2024-02-21T17:26:50.744Z,7.79
2024-02-21T17:29:17.436Z,7.78
2024-02-21T17:31:44.601Z,7.78
2024-02-21T17:34:11.359Z,7.78
2024-02-21T17:36:37.913Z,7.75
2024-02-21T17:39:04.514Z,7.75
2024-02-21T17:41:31.128Z,7.74
2024-02-21T17:43:57.922Z,7.74
2024-02-21T17:46:25.838Z,7.74
2024-02-21T17:48:52.586Z,7.74
2024-02-21T17:51:19.244Z,7.73
2024-02-21T17:53:45.834Z,7.74
2024-02-21T17:56:12.431Z,7.74
2024-02-21T17:58:39.151Z,7.73
2024-02-21T18:01:06.038Z,7.74
2024-02-21T18:03:32.510Z,7.74
2024-02-21T18:06:04.051Z,7.75
2024-02-21T18:08:31.305Z,7.74
2024-02-21T18:10:58.057Z,7.75
2024-02-21T18:13:24.969Z,7.77
2024-02-21T18:15:51.706Z,7.76
2024-02-21T18:18:18.422Z,7.75
2024-02-21T18:20:44.972Z,7.76
2024-02-21T18:23:11.633Z,7.77
2024-02-21T18:25:38.285Z,7.75
2024-02-21T18:28:05.304Z,7.75
2024-02-21T18:30:32.780Z,7.74
2024-02-21T18:33:01.235Z,7.76
2024-02-21T18:35:27.881Z,7.75
2024-02-21T18:37:54.762Z,7.75
2024-02-21T18:40:21.528Z,7.75
2024-02-21T18:42:48.208Z,7.77
2024-02-21T18:45:16.931Z,7.77
2024-02-21T18:47:44.612Z,7.77
2024-02-21T18:50:11.689Z,7.77
2024-02-21T18:52:38.464Z,7.79
2024-02-21T18:55:05.655Z,7.78
2024-02-21T18:57:33.032Z,7.79
2024-02-21T18:59:59.533Z,7.79
2024-02-21T19:02:26.028Z,7.79
2024-02-21T19:04:52.734Z,7.79
2024-02-21T19:07:19.212Z,7.79
2024-02-21T19:09:45.959Z,7.79
2024-02-21T19:12:13.794Z,7.78
2024-02-21T19:14:41.975Z,7.78
2024-02-21T19:17:09.475Z,7.76
2024-02-21T19:19:37.827Z,7.74
2024-02-21T19:22:06.456Z,7.73
2024-02-21T19:24:33.128Z,7.74
2024-02-21T19:26:59.834Z,7.72
2024-02-21T19:29:26.356Z,7.73
2024-02-21T19:31:53.111Z,7.72
2024-02-21T19:34:20.275Z,7.73
2024-02-21T19:36:46.990Z,7.73
2024-02-21T19:39:13.577Z,7.73
2024-02-21T19:41:40.124Z,7.72
2024-02-21T19:44:07.303Z,7.73
2024-02-21T19:46:34.838Z,7.73
2024-02-21T19:49:02.720Z,7.75
2024-02-21T19:51:29.507Z,7.75
2024-02-21T19:54:09.627Z,7.77
2024-02-21T19:56:42.712Z,7.77
2024-02-21T19:59:09.429Z,7.77
2024-02-21T20:01:36.035Z,7.79
2024-02-21T20:04:04.941Z,7.78
2024-02-21T20:06:31.494Z,7.80
2024-02-21T20:08:59.624Z,7.79
2024-02-21T20:11:30.646Z,7.80
2024-02-21T20:13:57.901Z,7.81
2024-02-21T20:16:24.585Z,7.81
2024-02-21T20:18:51.288Z,7.82
2024-02-21T20:21:18.127Z,7.85
2024-02-21T20:23:44.976Z,7.84
2024-02-21T20:26:11.503Z,7.85
2024-02-21T20:28:38.040Z,7.86
2024-02-21T20:31:04.686Z,7.86
2024-02-21T20:33:31.200Z,7.87
2024-02-21T20:35:58.543Z,7.86
2024-02-21T20:38:25.109Z,7.87
2024-02-21T20:40:51.591Z,7.88
2024-02-21T20:43:18.185Z,7.88
2024-02-21T20:45:44.719Z,7.89
2024-02-21T20:48:11.256Z,7.90
2024-02-21T20:50:37.846Z,7.91
2024-02-21T20:53:04.535Z,7.92
2024-02-21T20:55:32.160Z,7.93
2024-02-21T20:57:58.850Z,7.93
2024-02-21T21:00:25.368Z,7.95
2024-02-21T21:02:52.283Z,7.96
2024-02-21T21:05:19.058Z,7.96
2024-02-21T21:07:46.152Z,7.97
2024-02-21T21:10:17.038Z,7.97
2024-02-21T21:12:44.868Z,7.98
2024-02-21T21:15:11.549Z,8.00
2024-02-21T21:17:38.372Z,8.00
2024-02-21T21:20:11.337Z,8.00
2024-02-21T21:22:40.748Z,8.02
2024-02-21T21:25:08.212Z,8.02
2024-02-21T21:27:34.727Z,8.02
2024-02-21T21:30:01.276Z,8.03
2024-02-21T21:32:28.502Z,8.04
2024-02-21T21:34:55.053Z,8.05
2024-02-21T21:37:22.403Z,8.07
2024-02-21T21:39:55.392Z,8.08
2024-02-21T21:42:22.966Z,8.09
2024-02-21T21:44:49.472Z,8.09
2024-02-21T21:47:16.757Z,8.10
2024-02-21T21:49:43.249Z,8.11
2024-02-21T21:52:09.971Z,8.13
2024-02-21T21:54:36.780Z,8.13
2024-02-21T21:57:03.317Z,8.13
2024-02-21T21:59:29.734Z,8.16
2024-02-21T22:01:56.307Z,8.17
2024-02-21T22:04:22.929Z,8.17
2024-02-21T22:06:49.509Z,8.18
2024-02-21T22:09:16.046Z,8.20
2024-02-21T22:11:42.520Z,8.22
2024-02-21T22:14:09.866Z,8.24
2024-02-21T22:16:36.841Z,8.25
2024-02-21T22:19:03.647Z,8.26
2024-02-21T22:21:31.149Z,8.26
2024-02-21T22:23:57.710Z,8.28
2024-02-21T22:26:25.001Z,8.28
2024-02-21T22:28:51.690Z,8.31
2024-02-21T22:31:18.384Z,8.31
2024-02-21T22:33:44.874Z,8.34
2024-02-21T22:36:15.940Z,8.34
2024-02-21T22:38:44.950Z,8.36
2024-02-21T22:41:11.513Z,8.37
2024-02-21T22:43:38.204Z,8.39
2024-02-21T22:46:05.552Z,8.40
2024-02-21T22:48:32.212Z,8.42
2024-02-21T22:50:59.333Z,8.43
2024-02-21T22:53:25.797Z,8.45
2024-02-21T22:55:52.375Z,8.47
2024-02-21T22:58:18.905Z,8.47
2024-02-21T23:00:45.512Z,8.50
2024-02-21T23:03:12.377Z,8.52
2024-02-21T23:05:38.953Z,8.53
2024-02-21T23:08:05.909Z,8.54
2024-02-21T23:10:33.943Z,8.55
2024-02-21T23:13:00.686Z,8.56
2024-02-21T23:15:27.231Z,8.57
2024-02-21T23:17:54.027Z,8.61
2024-02-21T23:20:20.749Z,8.62
2024-02-21T23:22:47.462Z,8.62
2024-02-21T23:25:14.230Z,8.64
2024-02-21T23:27:41.048Z,8.66
2024-02-21T23:30:12.568Z,8.67
2024-02-21T23:32:39.385Z,8.69
2024-02-21T23:35:07.603Z,8.69
2024-02-21T23:37:34.395Z,8.71
2024-02-21T23:40:01.063Z,8.72
2024-02-21T23:42:27.617Z,8.73
2024-02-21T23:44:56.424Z,8.75
2024-02-21T23:47:23.421Z,8.76
2024-02-21T23:49:50.673Z,8.78
2024-02-21T23:52:17.601Z,8.78
2024-02-21T23:54:44.074Z,8.80
2024-02-21T23:57:10.646Z,8.81
2024-02-21T23:59:39.581Z,8.83
